UKLR/RWN METAR and TAF weather

Enter ICAO airport designator
Station Type Date Time Source
UKLR METAR 2020/04/04 04:00 UTC NOAA

UKLR 040400Z 23001MPS CAVOK M02/M06 Q1020 NOSIG


Station Type Date Time Source
UKLR Decoded METAR 2020/04/04 04:00 UTC NOAA

Rivne, Ukraine (UKLR) 50-35N 026-08E
Apr 04, 2020 - 12:00 AM EDT / 2020.04.04 0400 UTC
Wind: from the SW (230 degrees) at 2 MPH (2 KT):0
Visibility: greater than 7 mile(s):0
Temperature: 28 F (-2 C)
Dew Point: 21 F (-6 C)
Relative Humidity: 74%
Pressure (altimeter): 30.12 in. Hg (1020 hPa)
ob: UKLR 040400Z 23001MPS CAVOK M02/M06 Q1020 NOSIG
cycle: 4

Station Type Date Time Source
UKLR TAF 2019/08/16 12:15 UTC NOAA

TAF TAF UKLR 161105Z 1612/1821 35003MPS 9999 BKN020 SCT023CB

Example: see airport list